Time;durP1;ratioP1;P1;durP2;ratioP2;P2;SDS_P1;SDS_P2;PMS_P1;PMS_P2;Temp;Humidity;BMP_temperature;BMP_pressure;BME280_temperature;BME280_humidity;BME280_pressure;Samples;Min_cycle;Max_cycle;Signal;HPM_P1;HPM_P2
2023/11/10 00:01:08;;;;;;;6.57;4.30;;;7.60;99.90;;;;;;4975875;28;20046;-73
2023/11/10 00:03:34;;;;;;;5.40;3.45;;;7.60;99.90;;;;;;4962643;28;20493;-73
2023/11/10 00:06:01;;;;;;;5.30;4.10;;;7.60;99.90;;;;;;4996436;28;20041;-73
2023/11/10 00:08:27;;;;;;;7.78;5.47;;;7.60;99.90;;;;;;4997431;28;20022;-73
2023/11/10 00:10:53;;;;;;;5.07;4.03;;;7.60;99.90;;;;;;4994341;28;20045;-73
2023/11/10 00:13:20;;;;;;;6.40;4.93;;;7.60;99.90;;;;;;4979983;28;20056;-73
2023/11/10 00:15:47;;;;;;;6.70;4.93;;;7.60;99.90;;;;;;4980689;28;20413;-73
2023/11/10 00:18:13;;;;;;;5.03;4.35;;;7.60;99.90;;;;;;4996384;28;20659;-73
2023/11/10 00:20:41;;;;;;;8.15;5.10;;;7.60;99.90;;;;;;4979043;28;20038;-73
2023/11/10 00:23:10;;;;;;;6.68;4.40;;;7.70;99.90;;;;;;5012419;28;20041;-73
2023/11/10 00:25:37;;;;;;;8.85;4.63;;;7.70;99.90;;;;;;4996300;28;20025;-73
2023/11/10 00:28:03;;;;;;;8.38;5.00;;;7.70;99.90;;;;;;5026761;28;21672;-73
2023/11/10 00:30:30;;;;;;;5.45;3.67;;;7.70;99.90;;;;;;4995935;28;20041;-74
2023/11/10 00:32:56;;;;;;;8.82;6.57;;;7.70;99.90;;;;;;4997520;28;20045;-73
2023/11/10 00:35:22;;;;;;;9.10;5.68;;;7.70;99.90;;;;;;4980787;28;20034;-74
2023/11/10 00:37:50;;;;;;;9.35;5.93;;;7.60;99.90;;;;;;4994610;28;20034;-73
2023/11/10 00:40:16;;;;;;;9.10;4.63;;;7.70;99.90;;;;;;5012886;28;20037;-73
2023/11/10 00:42:43;;;;;;;5.65;4.35;;;7.70;99.90;;;;;;4982656;28;20701;-73
2023/11/10 00:45:09;;;;;;;6.38;4.72;;;7.70;99.90;;;;;;4997924;28;20524;-74
2023/11/10 00:47:35;;;;;;;5.53;3.88;;;7.70;99.90;;;;;;4996115;28;20041;-73
2023/11/10 00:50:02;;;;;;;8.35;5.40;;;7.70;99.90;;;;;;4995376;28;20503;-73
2023/11/10 00:52:28;;;;;;;11.50;5.35;;;7.70;99.90;;;;;;4980968;28;20038;-73
2023/11/10 00:54:54;;;;;;;6.60;4.70;;;7.70;99.90;;;;;;5008016;28;20060;-73
2023/11/10 00:57:21;;;;;;;10.50;4.97;;;7.70;99.90;;;;;;4980037;28;20389;-73
2023/11/10 00:59:47;;;;;;;7.20;4.50;;;7.70;99.90;;;;;;5010642;28;20045;-73
2023/11/10 01:02:13;;;;;;;7.70;4.60;;;7.70;99.90;;;;;;4996721;28;20038;-73
2023/11/10 01:04:42;;;;;;;8.65;4.72;;;7.70;99.90;;;;;;4997602;28;20457;-73
2023/11/10 01:07:08;;;;;;;7.93;4.93;;;7.70;99.90;;;;;;4979656;28;20049;-73
2023/11/10 01:09:35;;;;;;;7.50;4.22;;;7.70;99.90;;;;;;4979356;28;20041;-73
2023/11/10 01:12:01;;;;;;;7.95;4.38;;;7.70;99.90;;;;;;4995888;28;20041;-73
2023/11/10 01:14:27;;;;;;;7.10;4.15;;;7.70;99.90;;;;;;4995867;28;20025;-73
2023/11/10 01:16:55;;;;;;;7.88;4.10;;;7.80;99.90;;;;;;4980340;28;20058;-73
2023/11/10 01:19:22;;;;;;;4.60;3.20;;;7.80;99.90;;;;;;4978582;28;20037;-73
2023/11/10 01:21:48;;;;;;;7.30;3.40;;;7.80;99.90;;;;;;4962579;28;20528;-73
2023/11/10 01:24:16;;;;;;;4.47;3.25;;;7.80;99.90;;;;;;4963625;28;20040;-73
2023/11/10 01:26:42;;;;;;;5.50;3.30;;;7.80;99.90;;;;;;4996058;28;20026;-73
2023/11/10 01:29:09;;;;;;;3.70;2.28;;;7.80;99.90;;;;;;4980474;28;20041;-73
2023/11/10 01:31:35;;;;;;;6.95;3.58;;;7.80;99.90;;;;;;4963488;28;20037;-73
2023/11/10 01:34:02;;;;;;;7.45;3.22;;;7.80;99.90;;;;;;4982590;28;20042;-73
2023/11/10 01:36:28;;;;;;;6.00;3.08;;;7.80;99.90;;;;;;4995826;28;20029;-73
2023/11/10 01:38:55;;;;;;;6.68;3.45;;;7.80;99.90;;;;;;4979834;28;20034;-73
2023/11/10 01:41:21;;;;;;;5.20;3.15;;;7.80;99.90;;;;;;4995886;28;20393;-74
2023/11/10 01:43:48;;;;;;;7.07;3.00;;;7.80;99.90;;;;;;4997424;28;20049;-73
2023/11/10 01:46:40;;;;;;;5.50;2.92;;;7.80;99.90;;;;;;4980669;28;20444;-74
2023/11/10 01:49:09;;;;;;;7.78;2.85;;;7.80;99.90;;;;;;4998649;28;20038;-74
2023/11/10 01:51:36;;;;;;;4.43;2.38;;;7.90;99.90;;;;;;4994073;28;20408;-73
2023/11/10 01:54:05;;;;;;;4.95;3.00;;;7.90;99.90;;;;;;4994979;28;20053;-73
2023/11/10 01:56:33;;;;;;;9.57;3.08;;;7.90;99.90;;;;;;4996463;28;20477;-73
2023/11/10 01:59:05;;;;;;;5.80;3.00;;;7.90;99.90;;;;;;4979944;28;20376;-73
2023/11/10 02:01:35;;;;;;;4.28;2.88;;;7.90;99.90;;;;;;4994139;28;20710;-73
2023/11/10 02:04:03;;;;;;;5.60;2.70;;;7.90;99.90;;;;;;4995628;28;20057;-73
2023/11/10 02:06:31;;;;;;;5.32;3.17;;;7.90;99.90;;;;;;4983225;28;20057;-73
2023/11/10 02:08:59;;;;;;;5.00;2.60;;;7.90;99.90;;;;;;4978104;28;20033;-73
2023/11/10 02:11:31;;;;;;;9.63;3.13;;;7.80;99.90;;;;;;4961065;28;20442;-73
2023/11/10 02:14:04;;;;;;;4.40;1.90;;;7.90;99.90;;;;;;4976410;28;20030;-74
2023/11/10 02:16:32;;;;;;;5.00;2.05;;;7.90;99.90;;;;;;5011241;28;20404;-73
2023/11/10 02:18:59;;;;;;;5.07;2.00;;;7.90;99.90;;;;;;4995186;28;20029;-73
2023/11/10 02:21:26;;;;;;;6.18;2.70;;;7.90;99.90;;;;;;4962512;28;20033;-73
2023/11/10 02:23:55;;;;;;;5.20;1.80;;;7.90;99.90;;;;;;4979636;28;20034;-73
2023/11/10 02:26:22;;;;;;;5.25;1.88;;;7.90;99.90;;;;;;5028172;28;20034;-73
2023/11/10 02:28:48;;;;;;;7.00;2.28;;;7.90;99.90;;;;;;4994293;28;20049;-74
2023/11/10 02:31:16;;;;;;;5.35;2.10;;;7.90;99.90;;;;;;4992952;28;20045;-73
2023/11/10 02:33:42;;;;;;;4.60;2.17;;;7.90;99.90;;;;;;4979863;28;20041;-73
2023/11/10 02:36:09;;;;;;;7.18;2.05;;;7.90;99.90;;;;;;4977189;28;20037;-73
2023/11/10 02:38:37;;;;;;;6.50;2.25;;;7.90;99.90;;;;;;4996699;28;20037;-73
2023/11/10 02:41:04;;;;;;;7.72;2.42;;;7.90;99.90;;;;;;4993325;28;20500;-73
2023/11/10 02:43:32;;;;;;;5.55;2.42;;;7.90;99.90;;;;;;4978313;28;20211;-73
2023/11/10 02:45:59;;;;;;;4.10;1.90;;;8.00;99.90;;;;;;4977823;28;20044;-74
2023/11/10 02:48:25;;;;;;;5.07;2.35;;;8.00;99.90;;;;;;4996383;28;20029;-74
2023/11/10 02:50:52;;;;;;;6.00;2.35;;;8.00;99.90;;;;;;4975872;28;20052;-74
2023/11/10 02:53:19;;;;;;;4.78;2.20;;;8.00;99.90;;;;;;4996037;28;20084;-73
2023/11/10 02:55:46;;;;;;;4.28;1.90;;;8.00;99.90;;;;;;4966769;28;20046;-73
2023/11/10 02:58:12;;;;;;;5.03;2.05;;;8.00;99.90;;;;;;4979628;28;20037;-74
2023/11/10 03:00:40;;;;;;;6.25;1.90;;;8.00;99.90;;;;;;4979217;28;20046;-74
2023/11/10 03:03:07;;;;;;;2.78;1.90;;;8.00;99.90;;;;;;4995127;28;20029;-73
2023/11/10 03:05:34;;;;;;;4.93;2.28;;;8.00;99.90;;;;;;4993842;28;20540;-73
2023/11/10 03:08:01;;;;;;;3.55;1.75;;;8.00;99.90;;;;;;5027267;28;20385;-73
2023/11/10 03:10:28;;;;;;;5.93;2.40;;;8.00;99.90;;;;;;5008813;28;20048;-74
2023/11/10 03:12:55;;;;;;;3.63;1.50;;;8.00;99.90;;;;;;4977969;28;20408;-74
2023/11/10 03:15:21;;;;;;;3.85;2.03;;;8.00;99.90;;;;;;4977106;28;20045;-73
2023/11/10 03:17:47;;;;;;;4.40;2.38;;;8.00;99.90;;;;;;4994293;28;20034;-73
2023/11/10 03:20:15;;;;;;;4.28;1.95;;;8.00;99.90;;;;;;4994513;28;20038;-73
2023/11/10 03:22:43;;;;;;;3.80;2.50;;;8.00;99.90;;;;;;4994163;28;20037;-73
2023/11/10 03:25:09;;;;;;;6.13;3.08;;;8.00;99.90;;;;;;4979991;28;20038;-74
2023/11/10 03:27:36;;;;;;;6.15;2.70;;;8.00;99.90;;;;;;4993387;28;20042;-73
2023/11/10 03:30:04;;;;;;;5.57;2.40;;;8.00;99.90;;;;;;4976928;28;20042;-73
2023/11/10 03:32:34;;;;;;;3.97;2.47;;;8.00;99.90;;;;;;4993525;28;20030;-73
2023/11/10 03:35:01;;;;;;;3.92;2.30;;;8.00;99.90;;;;;;4976433;28;20045;-73
2023/11/10 03:37:27;;;;;;;4.53;2.10;;;8.00;99.90;;;;;;4977938;28;20048;-73
2023/11/10 03:39:53;;;;;;;5.53;2.55;;;8.00;99.90;;;;;;4999715;28;20480;-74
2023/11/10 03:42:20;;;;;;;6.03;2.03;;;8.00;99.90;;;;;;4981143;28;20040;-73
2023/11/10 03:44:47;;;;;;;3.45;1.90;;;8.10;99.90;;;;;;4996522;28;20073;-74
2023/11/10 03:47:14;;;;;;;5.05;1.95;;;8.00;99.90;;;;;;4980562;28;20481;-73
2023/11/10 03:49:40;;;;;;;3.72;1.60;;;8.00;99.90;;;;;;4998003;28;20034;-73
2023/11/10 03:52:07;;;;;;;3.80;2.10;;;8.00;99.90;;;;;;4982787;28;20041;-73
2023/11/10 03:54:34;;;;;;;6.03;2.50;;;8.10;99.90;;;;;;4997259;28;20369;-73
2023/11/10 03:57:00;;;;;;;4.32;2.25;;;8.10;99.90;;;;;;4980948;28;20033;-73
2023/11/10 03:59:26;;;;;;;3.53;2.08;;;8.10;99.90;;;;;;4996387;28;20045;-73
2023/11/10 04:01:53;;;;;;;3.60;1.98;;;8.00;99.90;;;;;;4979486;28;20133;-74
2023/11/10 04:04:19;;;;;;;6.63;2.13;;;8.00;99.90;;;;;;4996948;28;20038;-73
2023/11/10 04:06:45;;;;;;;4.13;2.08;;;8.10;99.90;;;;;;4983114;28;20488;-74
2023/11/10 04:09:12;;;;;;;5.60;2.80;;;8.00;99.90;;;;;;4981226;28;20046;-74
2023/11/10 04:11:38;;;;;;;3.72;2.60;;;8.00;99.90;;;;;;4979904;28;20496;-73
2023/11/10 04:14:04;;;;;;;5.30;2.75;;;8.00;99.90;;;;;;4967347;28;20352;-73
2023/11/10 04:16:31;;;;;;;4.30;1.95;;;8.00;99.90;;;;;;4998897;28;20029;-73
2023/11/10 04:18:57;;;;;;;3.05;2.08;;;8.00;99.90;;;;;;4996371;28;20081;-73
2023/11/10 04:21:29;;;;;;;5.53;2.75;;;8.00;99.90;;;;;;4995095;28;20060;-73
2023/11/10 04:23:57;;;;;;;4.80;2.10;;;8.00;99.90;;;;;;4979621;28;20041;-73
2023/11/10 04:26:23;;;;;;;4.82;1.60;;;8.00;99.90;;;;;;4996882;28;20038;-73
2023/11/10 04:28:50;;;;;;;5.43;2.13;;;8.00;99.90;;;;;;4996314;28;20500;-72
2023/11/10 04:31:17;;;;;;;4.32;1.70;;;8.00;99.90;;;;;;4994514;28;20042;-73
2023/11/10 04:33:44;;;;;;;4.70;2.05;;;8.00;99.90;;;;;;4996197;28;20517;-74
2023/11/10 04:36:12;;;;;;;7.00;2.15;;;8.00;99.90;;;;;;4965095;28;20405;-73
2023/11/10 04:38:41;;;;;;;4.68;1.92;;;8.00;99.90;;;;;;4980750;28;20045;-73
2023/11/10 04:41:08;;;;;;;3.03;1.40;;;8.00;99.90;;;;;;5009994;28;20037;-73
2023/11/10 04:43:34;;;;;;;3.58;1.35;;;8.00;99.90;;;;;;4996659;28;20034;-73
2023/11/10 04:46:04;;;;;;;4.07;1.60;;;8.00;99.90;;;;;;4996928;28;20041;-73
2023/11/10 04:48:31;;;;;;;3.30;1.33;;;8.00;99.90;;;;;;4996967;28;20037;-73
2023/11/10 04:50:57;;;;;;;4.03;1.70;;;8.00;99.90;;;;;;4994337;28;20046;-73
2023/11/10 04:53:24;;;;;;;5.55;1.75;;;8.00;99.90;;;;;;4996654;28;20034;-73
2023/11/10 04:55:50;;;;;;;5.07;1.80;;;8.00;99.90;;;;;;4997423;28;20033;-73
2023/11/10 04:58:16;;;;;;;4.13;1.60;;;8.00;99.90;;;;;;4965702;28;20045;-73
2023/11/10 05:00:43;;;;;;;2.72;1.20;;;8.00;99.90;;;;;;4978853;28;20382;-73
2023/11/10 05:03:10;;;;;;;3.80;1.35;;;8.00;99.90;;;;;;4995648;28;20034;-73
2023/11/10 05:05:36;;;;;;;3.65;1.40;;;8.00;99.90;;;;;;4996006;28;20053;-73
2023/11/10 05:08:03;;;;;;;2.33;1.30;;;8.00;99.90;;;;;;4995824;28;20934;-73
2023/11/10 05:10:30;;;;;;;4.70;1.77;;;8.00;99.90;;;;;;4997533;28;20038;-73
2023/11/10 05:12:56;;;;;;;4.13;1.33;;;8.00;99.90;;;;;;4982499;28;20030;-74
2023/11/10 05:15:23;;;;;;;3.97;1.48;;;8.10;99.90;;;;;;4979543;28;20064;-73
2023/11/10 05:17:50;;;;;;;4.85;1.30;;;8.10;99.90;;;;;;4996971;28;20034;-73
2023/11/10 05:20:17;;;;;;;3.47;1.20;;;8.10;99.90;;;;;;4996747;28;20401;-73
2023/11/10 05:22:43;;;;;;;5.38;2.00;;;8.10;99.90;;;;;;4997964;28;20038;-74
2023/11/10 05:25:11;;;;;;;4.40;1.45;;;8.00;99.90;;;;;;4997148;28;20498;-73
2023/11/10 05:27:38;;;;;;;4.85;1.40;;;8.00;99.90;;;;;;4978886;28;20385;-73
2023/11/10 05:30:06;;;;;;;2.70;1.63;;;8.10;99.90;;;;;;4996449;28;20041;-74
2023/11/10 05:32:33;;;;;;;5.22;1.58;;;8.00;99.90;;;;;;4978625;28;20099;-74
2023/11/10 05:34:59;;;;;;;4.72;1.88;;;8.00;99.90;;;;;;4982314;28;20030;-74
2023/11/10 05:37:26;;;;;;;6.50;1.63;;;8.00;99.90;;;;;;4979536;28;20033;-74
2023/11/10 05:39:53;;;;;;;5.13;1.67;;;8.00;99.90;;;;;;4980672;28;20520;-74
2023/11/10 05:42:23;;;;;;;7.80;1.33;;;8.00;99.90;;;;;;5011186;28;20045;-74
2023/11/10 05:44:50;;;;;;;4.65;1.23;;;8.00;99.90;;;;;;5027954;28;20046;-73
2023/11/10 05:47:17;;;;;;;4.63;1.23;;;8.00;99.90;;;;;;4996602;28;20469;-74
2023/11/10 05:49:44;;;;;;;5.38;1.15;;;8.00;99.90;;;;;;4981385;28;20397;-74
2023/11/10 05:52:11;;;;;;;5.88;1.65;;;8.00;99.90;;;;;;5028509;28;20393;-73
2023/11/10 05:54:39;;;;;;;2.42;1.20;;;8.00;99.90;;;;;;4997077;28;20061;-74
2023/11/10 05:57:06;;;;;;;4.28;1.58;;;8.00;99.90;;;;;;4995237;28;20030;-74
2023/11/10 05:59:33;;;;;;;5.63;1.95;;;8.00;99.90;;;;;;4995459;28;20042;-74
2023/11/10 06:01:59;;;;;;;4.10;2.22;;;8.00;99.90;;;;;;4993785;28;20030;-73
2023/11/10 06:04:26;;;;;;;5.97;2.20;;;8.00;99.90;;;;;;5011954;28;20029;-75
2023/11/10 06:06:53;;;;;;;4.30;1.90;;;8.00;99.90;;;;;;4981319;28;20484;-74
2023/11/10 06:09:22;;;;;;;3.47;1.35;;;7.90;99.90;;;;;;4994069;28;20033;-73
2023/11/10 06:11:51;;;;;;;4.35;1.27;;;8.00;99.90;;;;;;5024198;28;20041;-74
2023/11/10 06:14:17;;;;;;;3.60;1.48;;;8.00;99.90;;;;;;5027590;28;20460;-74
2023/11/10 06:16:44;;;;;;;3.58;1.67;;;8.00;99.90;;;;;;5026874;28;20125;-74
2023/11/10 06:19:11;;;;;;;10.15;1.92;;;7.90;99.90;;;;;;4978465;28;20038;-74
2023/11/10 06:21:37;;;;;;;4.47;1.40;;;7.90;99.90;;;;;;4993850;28;20397;-74
2023/11/10 06:24:04;;;;;;;6.25;2.13;;;7.90;99.90;;;;;;4965924;28;20033;-73
2023/11/10 06:26:30;;;;;;;5.15;1.30;;;7.90;99.90;;;;;;4978448;28;20046;-74
2023/11/10 06:28:58;;;;;;;4.78;1.70;;;7.90;99.90;;;;;;4979608;28;20030;-74
2023/11/10 06:31:25;;;;;;;4.22;1.60;;;7.90;99.90;;;;;;5008611;28;20746;-74
2023/11/10 06:33:51;;;;;;;3.03;1.15;;;7.80;99.90;;;;;;4965402;28;20394;-74
2023/11/10 06:36:19;;;;;;;3.67;1.25;;;7.80;99.90;;;;;;4977583;28;20061;-74
2023/11/10 06:38:46;;;;;;;6.47;1.10;;;7.70;99.90;;;;;;4961186;28;20042;-74
2023/11/10 06:41:14;;;;;;;2.65;0.90;;;7.60;99.90;;;;;;4995223;28;20036;-73
2023/11/10 06:43:41;;;;;;;8.10;1.00;;;7.50;99.90;;;;;;4994993;28;20500;-74
2023/11/10 06:46:17;;;;;;;3.72;1.10;;;7.40;99.90;;;;;;4993743;28;20405;-73
2023/11/10 06:48:44;;;;;;;2.47;0.70;;;7.30;99.90;;;;;;4993965;28;20048;-74
2023/11/10 06:51:10;;;;;;;5.85;2.75;;;7.20;99.90;;;;;;4993156;28;20037;-74
2023/11/10 06:53:36;;;;;;;4.72;2.17;;;7.20;99.90;;;;;;4976845;28;20328;-74
2023/11/10 06:56:03;;;;;;;3.97;1.20;;;7.20;99.90;;;;;;4993842;28;20525;-74
2023/11/10 06:58:29;;;;;;;5.88;1.45;;;7.10;99.90;;;;;;4993670;28;20034;-74
2023/11/10 07:00:59;;;;;;;5.00;1.45;;;7.10;99.90;;;;;;4993286;28;20045;-74
2023/11/10 07:03:26;;;;;;;4.22;1.02;;;7.20;99.90;;;;;;4992535;28;20038;-74
2023/11/10 07:05:52;;;;;;;4.65;1.27;;;7.20;99.90;;;;;;4995078;28;20037;-75
2023/11/10 07:08:20;;;;;;;7.13;1.45;;;7.20;99.90;;;;;;4994405;28;20034;-75
2023/11/10 07:10:51;;;;;;;4.85;1.40;;;7.30;99.90;;;;;;4977392;28;20440;-74
2023/11/10 07:13:18;;;;;;;4.22;1.65;;;7.40;99.90;;;;;;4996879;28;20041;-75
2023/11/10 07:15:48;;;;;;;4.22;1.50;;;7.50;99.90;;;;;;4981309;28;20600;-74
2023/11/10 07:18:15;;;;;;;6.10;2.10;;;7.50;99.90;;;;;;4997900;28;20045;-75
2023/11/10 07:20:44;;;;;;;5.28;1.83;;;7.50;99.90;;;;;;4979893;28;20045;-74
2023/11/10 07:23:11;;;;;;;4.63;1.30;;;7.60;99.90;;;;;;4996101;28;20417;-74
2023/11/10 07:25:38;;;;;;;2.10;1.00;;;7.60;99.90;;;;;;4981152;28;20041;-74
2023/11/10 07:28:04;;;;;;;4.63;1.50;;;7.70;99.90;;;;;;4983420;28;20037;-74
2023/11/10 07:30:31;;;;;;;4.55;1.20;;;7.70;99.90;;;;;;4979843;28;20025;-73
2023/11/10 07:32:57;;;;;;;5.82;1.67;;;7.80;99.90;;;;;;4982919;28;20037;-74
2023/11/10 07:35:24;;;;;;;4.18;1.35;;;7.80;99.90;;;;;;4979410;28;20041;-74
2023/11/10 07:37:50;;;;;;;4.40;2.50;;;7.80;99.90;;;;;;4996015;28;20033;-75
2023/11/10 07:40:17;;;;;;;6.03;2.53;;;7.90;99.90;;;;;;4979927;28;20045;-74
2023/11/10 07:42:45;;;;;;;8.32;4.15;;;7.90;99.90;;;;;;4981254;28;20038;-75
2023/11/10 07:45:16;;;;;;;7.43;2.42;;;8.00;99.90;;;;;;4967741;28;20033;-75
2023/11/10 07:47:47;;;;;;;6.47;2.13;;;8.00;99.90;;;;;;5011745;28;20049;-75
2023/11/10 07:50:15;;;;;;;5.28;2.25;;;8.10;99.90;;;;;;4995547;28;20037;-75
2023/11/10 07:52:42;;;;;;;4.72;2.03;;;8.10;99.90;;;;;;4981099;28;20400;-75
2023/11/10 07:55:09;;;;;;;4.10;1.90;;;8.10;99.90;;;;;;4981601;28;20042;-75
2023/11/10 07:57:36;;;;;;;6.93;2.35;;;8.20;99.90;;;;;;5002035;28;20037;-75
2023/11/10 08:00:06;;;;;;;7.80;2.20;;;8.20;99.90;;;;;;4981339;28;20042;-75
2023/11/10 08:02:38;;;;;;;5.80;1.42;;;8.20;99.90;;;;;;5012740;28;20042;-75
2023/11/10 08:05:05;;;;;;;7.68;1.52;;;8.20;99.90;;;;;;5015792;28;20045;-75
2023/11/10 08:07:32;;;;;;;3.35;1.38;;;8.20;99.90;;;;;;4982743;28;20536;-75
2023/11/10 08:10:02;;;;;;;5.57;1.90;;;8.20;99.90;;;;;;4997987;28;20045;-74
2023/11/10 08:12:29;;;;;;;7.15;3.33;;;8.30;99.90;;;;;;4997602;28;20500;-74
2023/11/10 08:14:56;;;;;;;6.15;2.75;;;8.30;99.90;;;;;;4999522;28;20044;-74
2023/11/10 08:17:23;;;;;;;4.05;1.85;;;8.30;99.90;;;;;;4999906;28;20484;-74
2023/11/10 08:19:50;;;;;;;6.68;2.05;;;8.30;99.90;;;;;;4981968;28;20034;-74
2023/11/10 08:22:16;;;;;;;5.28;1.73;;;8.30;99.90;;;;;;4998698;28;20038;-74
2023/11/10 08:24:43;;;;;;;9.18;2.10;;;8.30;99.90;;;;;;4996830;28;20030;-74
2023/11/10 08:27:10;;;;;;;6.85;1.80;;;8.30;99.90;;;;;;4996187;28;20034;-75
2023/11/10 08:29:36;;;;;;;3.80;1.63;;;8.30;99.90;;;;;;4999288;28;20041;-74
2023/11/10 08:32:03;;;;;;;5.65;2.38;;;8.30;99.90;;;;;;4980869;28;20037;-74
2023/11/10 08:34:29;;;;;;;4.75;2.25;;;8.30;99.90;;;;;;4997479;28;20034;-75
2023/11/10 08:36:57;;;;;;;6.80;2.00;;;8.30;99.90;;;;;;4983116;28;20045;-74
2023/11/10 08:39:23;;;;;;;7.43;2.08;;;8.30;99.90;;;;;;4998237;28;22680;-75
2023/11/10 08:41:50;;;;;;;8.68;1.60;;;8.30;99.90;;;;;;4996212;28;20040;-75
2023/11/10 08:44:18;;;;;;;6.00;1.88;;;8.30;99.90;;;;;;4995533;28;20503;-73
2023/11/10 08:46:45;;;;;;;5.20;1.90;;;8.30;99.90;;;;;;5012801;28;20683;-75
2023/11/10 08:49:12;;;;;;;5.43;1.85;;;8.30;99.90;;;;;;4979866;28;20045;-76
2023/11/10 08:51:40;;;;;;;3.58;1.80;;;8.30;99.90;;;;;;4979425;28;20041;-75
2023/11/10 08:54:08;;;;;;;6.95;2.15;;;8.40;99.90;;;;;;5028337;28;20029;-75
2023/11/10 08:56:35;;;;;;;7.50;2.10;;;8.40;99.90;;;;;;4981869;28;20046;-75
2023/11/10 08:59:03;;;;;;;5.60;1.67;;;8.40;99.90;;;;;;4995085;28;20029;-75
2023/11/10 09:01:30;;;;;;;5.95;2.05;;;8.40;99.90;;;;;;4981258;28;20026;-76
2023/11/10 09:03:57;;;;;;;5.82;1.40;;;8.40;99.90;;;;;;4998443;28;20699;-76
2023/11/10 09:06:23;;;;;;;4.35;1.60;;;8.40;99.90;;;;;;4995435;28;20034;-75
2023/11/10 09:08:50;;;;;;;8.10;1.98;;;8.50;99.90;;;;;;4996728;28;20424;-75
2023/11/10 09:11:16;;;;;;;4.72;1.40;;;8.50;99.90;;;;;;4998233;28;20030;-75
2023/11/10 09:13:43;;;;;;;5.28;1.58;;;8.50;99.90;;;;;;4996229;28;20033;-75
2023/11/10 09:16:09;;;;;;;6.82;1.50;;;8.50;99.90;;;;;;5030887;28;20030;-74
2023/11/10 09:18:36;;;;;;;10.00;3.63;;;8.50;99.90;;;;;;4965576;28;21133;-74
2023/11/10 09:21:09;;;;;;;6.45;2.72;;;8.60;99.90;;;;;;4979680;28;20037;-75
2023/11/10 09:23:35;;;;;;;7.78;2.13;;;8.60;99.90;;;;;;5029004;28;20026;-74
2023/11/10 09:26:03;;;;;;;6.32;1.42;;;8.60;99.90;;;;;;4979514;28;20029;-74
2023/11/10 09:28:31;;;;;;;5.70;1.00;;;8.70;99.90;;;;;;5025713;28;20041;-75
2023/11/10 09:30:59;;;;;;;8.45;2.17;;;8.80;99.90;;;;;;4979847;28;20037;-75
2023/11/10 09:33:26;;;;;;;8.50;1.85;;;8.80;99.90;;;;;;4999339;28;20029;-74
2023/11/10 09:35:52;;;;;;;4.80;1.30;;;8.90;99.90;;;;;;4981966;28;20026;-75
2023/11/10 09:38:19;;;;;;;8.80;2.03;;;8.90;99.90;;;;;;4980293;28;20037;-75
2023/11/10 09:40:46;;;;;;;6.72;1.50;;;9.00;99.90;;;;;;4995812;28;20042;-74
2023/11/10 09:43:14;;;;;;;7.93;1.90;;;9.00;99.90;;;;;;4996182;28;20496;-75
2023/11/10 09:45:47;;;;;;;5.60;1.25;;;9.00;99.90;;;;;;4999657;28;20045;-74
2023/11/10 09:48:14;;;;;;;6.00;1.58;;;9.00;99.90;;;;;;5014123;28;20207;-74
2023/11/10 09:50:43;;;;;;;7.40;1.10;;;9.00;99.90;;;;;;4997040;28;20378;-74
2023/11/10 09:53:09;;;;;;;9.00;1.90;;;9.00;99.90;;;;;;4996316;28;20041;-74
2023/11/10 09:55:36;;;;;;;11.48;1.40;;;9.00;99.90;;;;;;4997508;28;20041;-74
2023/11/10 09:58:04;;;;;;;6.93;1.58;;;9.00;99.90;;;;;;4966927;28;20038;-75
2023/11/10 10:00:31;;;;;;;5.68;1.58;;;8.90;99.90;;;;;;5009844;28;20033;-74
2023/11/10 10:02:58;;;;;;;6.13;1.23;;;8.90;99.90;;;;;;4992924;28;20033;-74
2023/11/10 10:05:24;;;;;;;6.78;1.63;;;8.90;99.90;;;;;;4989566;28;20049;-74
2023/11/10 10:07:50;;;;;;;6.70;1.70;;;9.00;99.90;;;;;;4994997;28;20026;-74
2023/11/10 10:10:20;;;;;;;8.18;1.60;;;9.10;99.90;;;;;;5011035;28;20037;-74
2023/11/10 10:12:46;;;;;;;9.23;1.60;;;9.10;99.90;;;;;;4980210;28;20044;-75
2023/11/10 10:15:13;;;;;;;7.15;1.42;;;9.10;99.90;;;;;;4997390;28;20026;-74
2023/11/10 10:17:39;;;;;;;8.85;1.23;;;9.20;99.90;;;;;;5011790;28;20042;-74
2023/11/10 10:20:13;;;;;;;6.97;1.08;;;9.20;99.90;;;;;;5011629;28;20499;-73
2023/11/10 10:22:46;;;;;;;6.88;1.25;;;9.30;99.90;;;;;;4963350;28;20384;-74
2023/11/10 10:25:14;;;;;;;6.05;1.10;;;9.30;99.90;;;;;;4995756;28;20831;-74
2023/11/10 10:27:41;;;;;;;4.97;1.75;;;9.30;99.90;;;;;;4964062;28;20377;-75
2023/11/10 10:30:07;;;;;;;9.07;1.70;;;9.30;99.90;;;;;;4997660;28;20030;-74
2023/11/10 10:32:34;;;;;;;7.03;2.03;;;9.20;99.90;;;;;;4980840;28;20070;-74
2023/11/10 10:35:00;;;;;;;8.32;1.50;;;9.20;99.90;;;;;;4996804;28;20034;-74
2023/11/10 10:37:31;;;;;;;6.45;1.33;;;9.20;99.90;;;;;;4997592;28;20026;-73
2023/11/10 10:40:01;;;;;;;4.38;1.17;;;9.20;99.90;;;;;;4980059;28;20465;-73
2023/11/10 10:42:34;;;;;;;3.95;0.90;;;9.20;99.90;;;;;;4994400;28;20038;-73
2023/11/10 10:45:04;;;;;;;7.45;1.55;;;9.20;99.90;;;;;;4995438;28;20045;-73
2023/11/10 10:47:38;;;;;;;8.35;1.95;;;9.10;99.90;;;;;;4979643;28;20264;-73
2023/11/10 10:50:09;;;;;;;9.35;1.88;;;9.10;99.90;;;;;;4995767;28;20356;-73
2023/11/10 10:52:35;;;;;;;9.35;1.58;;;9.00;99.90;;;;;;5009423;28;20037;-72
2023/11/10 10:55:07;;;;;;;7.50;2.28;;;9.00;99.90;;;;;;4960390;28;20026;-73
2023/11/10 10:57:34;;;;;;;4.70;1.40;;;9.00;99.90;;;;;;4995541;28;20030;-73
2023/11/10 11:00:02;;;;;;;7.25;1.40;;;9.00;99.90;;;;;;4995364;28;20384;-73
2023/11/10 11:02:30;;;;;;;6.95;1.75;;;9.00;99.90;;;;;;4962331;28;20108;-73
2023/11/10 11:05:08;;;;;;;4.88;1.20;;;9.00;99.90;;;;;;4976535;28;20026;-73
2023/11/10 11:07:41;;;;;;;6.95;1.15;;;8.90;99.90;;;;;;4995275;28;20018;-73
2023/11/10 11:10:37;;;;;;;5.00;1.13;;;8.90;99.90;;;;;;4977085;28;20030;-71
2023/11/10 11:13:41;;;;;;;6.93;1.23;;;8.90;99.90;;;;;;5012440;28;20284;-71
2023/11/10 11:16:42;;;;;;;10.05;1.83;;;8.90;99.90;;;;;;5012779;28;20488;-71
2023/11/10 11:19:30;;;;;;;7.53;1.30;;;8.90;99.90;;;;;;4995293;28;20882;-71
2023/11/10 11:21:57;;;;;;;6.18;1.48;;;8.80;99.90;;;;;;4976505;28;20460;-71
2023/11/10 11:24:24;;;;;;;6.78;1.40;;;8.70;99.90;;;;;;4979211;28;20022;-71
2023/11/10 11:27:01;;;;;;;4.40;1.40;;;8.70;99.90;;;;;;4978321;28;20041;-71
2023/11/10 11:29:38;;;;;;;8.75;1.48;;;8.70;99.90;;;;;;4997419;28;20034;-71
2023/11/10 11:32:08;;;;;;;7.57;1.52;;;8.60;99.90;;;;;;4994120;28;20045;-71
2023/11/10 11:34:38;;;;;;;5.00;1.50;;;8.60;99.90;;;;;;4994941;28;20090;-71
2023/11/10 11:37:05;;;;;;;5.00;1.60;;;8.60;99.90;;;;;;5028359;28;20868;-71
2023/11/10 11:39:33;;;;;;;5.10;1.02;;;8.60;99.90;;;;;;4979523;28;20366;-71
2023/11/10 11:42:05;;;;;;;6.35;1.52;;;8.50;99.90;;;;;;4993367;28;20038;-71
2023/11/10 11:44:34;;;;;;;4.35;1.48;;;8.50;99.90;;;;;;5027554;28;21210;-71
2023/11/10 11:47:11;;;;;;;3.78;1.15;;;8.50;99.90;;;;;;4979290;28;21162;-71
2023/11/10 11:49:39;;;;;;;5.60;1.35;;;8.60;99.90;;;;;;5008547;28;20021;-71
2023/11/10 11:52:07;;;;;;;5.63;1.80;;;8.60;99.90;;;;;;4994241;28;20038;-72
2023/11/10 11:54:34;;;;;;;4.63;1.63;;;8.60;99.90;;;;;;4981019;28;20026;-70
2023/11/10 11:57:01;;;;;;;10.43;2.28;;;8.60;99.90;;;;;;4996587;28;20030;-71
2023/11/10 11:59:28;;;;;;;4.70;1.77;;;8.60;99.90;;;;;;4999822;28;20064;-71
2023/11/10 12:01:55;;;;;;;5.85;2.15;;;8.60;99.90;;;;;;4981004;28;20037;-72
2023/11/10 12:04:22;;;;;;;7.88;1.58;;;8.60;99.90;;;;;;4998968;28;20041;-72
2023/11/10 12:06:49;;;;;;;4.22;1.15;;;8.60;99.90;;;;;;5000306;28;20818;-71
2023/11/10 12:09:17;;;;;;;4.97;1.50;;;8.70;99.90;;;;;;4983647;28;20041;-72
2023/11/10 12:11:45;;;;;;;7.03;1.35;;;8.70;99.90;;;;;;4981391;28;20038;-71
2023/11/10 12:14:13;;;;;;;5.88;1.75;;;8.70;99.90;;;;;;4982480;28;20034;-72
2023/11/10 12:16:41;;;;;;;5.30;1.85;;;8.70;99.90;;;;;;4998375;28;20500;-71
2023/11/10 12:19:12;;;;;;;4.78;1.45;;;8.70;99.90;;;;;;4983951;28;20037;-72
2023/11/10 12:21:39;;;;;;;6.18;2.22;;;8.70;99.90;;;;;;4997487;28;20350;-71
2023/11/10 12:24:08;;;;;;;7.50;1.83;;;8.70;99.90;;;;;;4982023;28;20492;-72
2023/11/10 12:26:39;;;;;;;8.35;1.70;;;8.70;99.90;;;;;;5015537;28;20041;-72
2023/11/10 12:29:23;;;;;;;5.65;2.13;;;8.70;99.90;;;;;;5031788;28;20398;-71
2023/11/10 12:31:50;;;;;;;5.60;1.67;;;8.70;99.90;;;;;;5014495;28;20419;-72
2023/11/10 12:34:16;;;;;;;5.88;1.70;;;8.70;99.90;;;;;;4999176;28;20037;-72
2023/11/10 12:36:44;;;;;;;8.55;2.00;;;8.70;99.90;;;;;;5000365;28;20045;-71
2023/11/10 12:39:17;;;;;;;7.43;1.58;;;8.70;99.90;;;;;;5001498;28;20411;-71
2023/11/10 12:41:45;;;;;;;;;;;8.70;99.90;;;;;;4980995;28;20033;-71
2023/11/10 12:44:16;;;;;;;4.25;1.27;;;8.80;99.90;;;;;;4981303;28;19917;-71
2023/11/10 12:46:54;;;;;;;5.10;1.27;;;8.70;99.90;;;;;;4998340;28;20033;-71
2023/11/10 12:49:26;;;;;;;3.47;1.40;;;8.70;99.90;;;;;;4966017;28;20042;-71
2023/11/10 12:51:55;;;;;;;4.70;0.95;;;8.80;99.90;;;;;;4998123;28;20034;-71
2023/11/10 12:54:24;;;;;;;4.47;0.95;;;8.80;99.90;;;;;;4997849;28;20051;-71
2023/11/10 12:56:52;;;;;;;5.47;1.33;;;8.80;99.90;;;;;;4998938;28;20029;-71
2023/11/10 12:59:30;;;;;;;4.28;0.98;;;8.80;99.90;;;;;;4998294;28;20505;-70
2023/11/10 13:01:58;;;;;;;3.85;1.02;;;8.80;99.90;;;;;;4995811;28;20459;-71